Time;durP1;ratioP1;P1;durP2;ratioP2;P2;SDS_P1;SDS_P2;PMS_P1;PMS_P2;Temp;Humidity;BMP_temperature;BMP_pressure;BME280_temperature;BME280_humidity;BME280_pressure;Samples;Min_cycle;Max_cycle;Signal;HPM_P1;HPM_P2
2024/04/15 00:00:11;;;;;;;6.73;1.70;;;;;10.00;101110.00;;;;10423875;28;20776;-80
2024/04/15 00:05:14;;;;;;;7.20;1.97;;;;;9.90;101091.00;;;;10449299;28;20380;-78
2024/04/15 00:10:16;;;;;;;5.37;1.57;;;;;9.80;101082.00;;;;10468000;27;20299;-78
2024/04/15 00:15:17;;;;;;;5.57;2.00;;;;;9.70;101072.00;;;;10485652;27;20874;-78
2024/04/15 00:20:19;;;;;;;5.73;2.53;;;;;9.60;101066.00;;;;10463822;27;20282;-78
2024/04/15 00:25:20;;;;;;;10.63;3.33;;;;;9.40;101072.00;;;;10451952;28;20297;-79
2024/04/15 00:30:22;;;;;;;8.30;2.90;;;;;9.30;101056.00;;;;10450193;27;20277;-78
2024/04/15 00:35:23;;;;;;;7.27;2.60;;;;;9.20;101048.00;;;;10476577;28;20360;-78
2024/04/15 00:40:30;;;;;;;10.43;2.33;;;;;9.20;101036.00;;;;10459061;27;20360;-79
2024/04/15 00:45:32;;;;;;;9.60;2.10;;;;;9.10;101028.00;;;;10460392;27;20275;-78
2024/04/15 00:50:39;;;;;;;4.27;1.50;;;;;9.10;101027.00;;;;10489329;27;20268;-78
2024/04/15 00:55:41;;;;;;;11.00;2.30;;;;;9.00;101026.00;;;;10437721;27;20266;-79
2024/04/15 01:00:43;;;;;;;8.43;2.80;;;;;9.10;101018.00;;;;10434675;27;20265;-79
2024/04/15 01:05:45;;;;;;;6.90;1.80;;;;;9.10;101024.00;;;;10455365;28;20305;-79
2024/04/15 01:10:46;;;;;;;5.30;2.30;;;;;9.10;101024.00;;;;10465308;27;20288;-79
2024/04/15 01:16:01;;;;;;;7.83;2.33;;;;;9.10;101011.00;;;;10481483;27;20617;-80
2024/04/15 01:21:03;;;;;;;5.37;1.87;;;;;9.10;101017.00;;;;10475231;27;20294;-79
2024/04/15 01:26:05;;;;;;;8.60;2.00;;;;;9.00;101010.00;;;;10457565;27;20285;-79
2024/04/15 01:31:06;;;;;;;4.87;1.40;;;;;9.00;101011.00;;;;10445628;27;20288;-79
2024/04/15 01:36:07;;;;;;;4.50;1.67;;;;;9.00;101004.00;;;;10490991;27;20295;-80
2024/04/15 01:41:09;;;;;;;8.87;2.67;;;;;8.90;100991.00;;;;10440878;27;20907;-80
2024/04/15 01:46:10;;;;;;;9.83;2.10;;;;;8.90;100983.00;;;;10466064;27;20269;-79
2024/04/15 01:51:12;;;;;;;4.27;1.43;;;;;8.90;100973.00;;;;10450082;27;20271;-79
2024/04/15 01:56:13;;;;;;;7.70;1.90;;;;;8.80;100964.00;;;;10448216;27;20300;-79
2024/04/15 02:01:15;;;;;;;11.30;2.60;;;;;8.80;100965.00;;;;10463400;27;20267;-79
2024/04/15 02:06:17;;;;;;;6.10;1.70;;;;;8.80;100954.00;;;;10487267;27;20262;-79
2024/04/15 02:11:19;;;;;;;4.43;1.73;;;;;8.70;100954.00;;;;10426685;27;20262;-79
2024/04/15 02:16:20;;;;;;;9.93;2.10;;;;;8.70;100946.00;;;;10431743;27;20304;-80
2024/04/15 02:21:22;;;;;;;3.97;1.67;;;;;8.70;100944.00;;;;10425783;27;20253;-79
2024/04/15 02:26:23;;;;;;;8.67;2.13;;;;;8.60;100950.00;;;;10495197;27;20266;-79
2024/04/15 02:31:25;;;;;;;9.03;2.00;;;;;8.60;100943.00;;;;10455883;27;20725;-79
2024/04/15 02:36:26;;;;;;;8.73;1.90;;;;;8.60;100939.00;;;;10444474;27;20269;-79
2024/04/15 02:41:28;;;;;;;6.57;1.73;;;;;8.50;100924.00;;;;10434479;27;20262;-79
2024/04/15 02:46:29;;;;;;;7.63;2.33;;;;;8.50;100922.00;;;;10447351;27;20791;-79
2024/04/15 02:51:31;;;;;;;10.93;2.50;;;;;8.40;100911.00;;;;10415695;28;20265;-79
2024/04/15 02:56:32;;;;;;;7.70;2.00;;;;;8.30;100927.00;;;;10432463;27;20270;-79
2024/04/15 03:01:34;;;;;;;9.67;2.57;;;;;8.30;100920.00;;;;10484318;27;20322;-79
2024/04/15 03:06:36;;;;;;;10.00;2.00;;;;;8.20;100912.00;;;;10480010;28;20262;-78
2024/04/15 03:11:37;;;;;;;8.23;2.47;;;;;8.10;100913.00;;;;10405583;28;20273;-79
2024/04/15 03:16:38;;;;;;;8.53;1.83;;;;;8.10;100908.00;;;;10437657;28;20275;-79
2024/04/15 03:21:40;;;;;;;11.57;2.30;;;;;8.00;100900.00;;;;10471677;27;20772;-78
2024/04/15 03:26:42;;;;;;;8.63;2.40;;;;;8.00;100901.00;;;;10482881;27;20311;-79
2024/04/15 03:31:44;;;;;;;9.00;2.93;;;;;8.00;100896.00;;;;10428060;27;20365;-78
2024/04/15 03:36:45;;;;;;;7.47;2.23;;;;;8.00;100883.00;;;;10438179;28;20443;-79
2024/04/15 03:41:47;;;;;;;10.27;2.17;;;;;8.00;100867.00;;;;10401456;27;20675;-80
2024/04/15 03:46:52;;;;;;;11.23;3.23;;;;;8.10;100863.00;;;;10448752;27;20271;-80
2024/04/15 03:51:53;;;;;;;16.87;2.80;;;;;8.00;100858.00;;;;10440622;28;20339;-80
2024/04/15 03:56:55;;;;;;;9.87;2.63;;;;;7.90;100850.00;;;;10469992;28;20304;-79
2024/04/15 04:01:56;;;;;;;10.97;3.07;;;;;7.80;100839.00;;;;10433236;27;20325;-80
2024/04/15 04:07:07;;;;;;;14.77;3.43;;;;;7.80;100824.00;;;;10469129;28;20271;-80
2024/04/15 04:12:08;;;;;;;11.37;3.23;;;;;7.70;100819.00;;;;10431569;27;21004;-80
2024/04/15 04:17:10;;;;;;;10.20;3.07;;;;;7.80;100821.00;;;;10464983;28;20325;-81
2024/04/15 04:22:11;;;;;;;15.33;3.33;;;;;7.80;100813.00;;;;10454663;27;20829;-81
2024/04/15 04:27:12;;;;;;;11.83;3.40;;;;;7.80;100804.00;;;;10459955;28;21107;-80
2024/04/15 04:32:14;;;;;;;10.83;2.80;;;;;7.90;100806.00;;;;10536925;22;20257;-87
2024/04/15 04:37:15;;;;;;;13.67;3.20;;;;;7.90;100801.00;;;;10702773;22;20330;-87
2024/04/15 04:42:17;;;;;;;12.43;3.40;;;;;7.90;100797.00;;;;10564117;22;20253;-88
2024/04/15 04:53:42;;;;;;;15.27;3.27;;;;;8.00;100802.00;;;;10995258;22;21064;-92
2024/04/15 05:05:32;;;;;;;17.97;3.53;;;;;7.80;100785.00;;;;10274810;27;20264;-91
2024/04/15 05:11:32;;;;;;;10.20;3.30;;;;;7.80;100776.00;;;;10414501;27;20254;-91
2024/04/15 05:17:29;;;;;;;14.50;4.37;;;;;7.80;100768.00;;;;10411819;27;20280;-93
2024/04/15 05:22:32;;;;;;;16.07;4.57;;;;;7.90;100767.00;;;;10494330;27;20305;-93
2024/04/15 05:27:48;;;;;;;24.63;4.20;;;;;7.90;100774.00;;;;10630820;23;20258;-87
2024/04/15 05:32:50;;;;;;;14.17;3.87;;;;;8.20;100754.00;;;;11229845;22;20322;-90
2024/04/15 05:37:51;;;;;;;14.57;3.53;;;;;8.80;100736.00;;;;11243426;22;20264;-88
2024/04/15 05:42:53;;;;;;;13.27;4.13;;;;;9.00;100743.00;;;;10804549;22;20316;-85
2024/04/15 05:47:54;;;;;;;19.40;4.63;;;;;9.40;100741.00;;;;10533343;27;20322;-84
2024/04/15 05:52:56;;;;;;;12.77;3.97;;;;;9.90;100742.00;;;;10508959;27;20340;-83
2024/04/15 05:57:58;;;;;;;16.70;4.10;;;;;10.50;100748.00;;;;10532446;27;20296;-84
2024/04/15 06:02:59;;;;;;;12.77;4.47;;;;;10.50;100739.00;;;;10559294;27;20306;-85
2024/04/15 06:08:01;;;;;;;15.70;3.90;;;;;10.40;100712.00;;;;10560828;27;21051;-83
2024/04/15 06:13:03;;;;;;;14.73;3.97;;;;;10.60;100709.00;;;;10569888;27;20373;-84
2024/04/15 06:18:05;;;;;;;13.63;4.00;;;;;11.10;100702.00;;;;10520952;27;20269;-84
2024/04/15 06:23:06;;;;;;;13.53;4.27;;;;;11.70;100696.00;;;;10530974;27;20741;-84
2024/04/15 06:28:08;;;;;;;16.67;4.30;;;;;12.10;100685.00;;;;10561875;27;20265;-84
2024/04/15 06:33:09;;;;;;;16.23;4.70;;;;;12.30;100681.00;;;;10550297;27;21009;-85
2024/04/15 06:38:13;;;;;;;9.43;4.00;;;;;12.60;100673.00;;;;10529854;27;20645;-84
2024/04/15 06:43:14;;;;;;;14.10;4.47;;;;;12.90;100666.00;;;;10564849;27;20273;-84
2024/04/15 06:48:16;;;;;;;16.33;3.77;;;;;13.00;100658.00;;;;10470264;27;20299;-83
2024/04/15 06:53:18;;;;;;;14.37;4.27;;;;;13.30;100656.00;;;;10475815;27;20324;-84
2024/04/15 06:58:20;;;;;;;12.45;3.88;;;;;14.20;100650.00;;;;10531642;27;20297;-83
2024/04/15 07:03:21;;;;;;;12.43;3.42;;;;;15.40;100640.00;;;;10502637;27;20277;-83
2024/04/15 07:08:23;;;;;;;10.80;3.72;;;;;14.50;100625.00;;;;10529218;27;20329;-84
2024/04/15 07:13:24;;;;;;;16.02;4.13;;;;;13.70;100604.00;;;;10537285;27;20268;-84
2024/04/15 07:18:27;;;;;;;10.20;3.10;;;;;13.40;100602.00;;;;10521054;27;21012;-85
2024/04/15 07:23:29;;;;;;;13.83;2.67;;;;;13.30;100583.00;;;;10571103;27;20269;-84
2024/04/15 07:28:30;;;;;;;10.03;2.57;;;;;13.10;100574.00;;;;10512719;27;20268;-85
2024/04/15 07:33:32;;;;;;;9.50;2.87;;;;;13.80;100550.00;;;;10530386;27;20278;-84
2024/04/15 07:38:33;;;;;;;12.57;2.97;;;;;14.70;100550.00;;;;10508669;27;20336;-84
2024/04/15 07:43:35;;;;;;;11.68;2.70;;;;;14.70;100537.00;;;;10540304;27;20260;-84
2024/04/15 07:48:36;;;;;;;11.97;2.70;;;;;14.80;100531.00;;;;10536532;27;20249;-84
2024/04/15 07:53:38;;;;;;;9.80;2.22;;;;;15.00;100515.00;;;;10487067;27;20758;-84
2024/04/15 07:58:40;;;;;;;5.97;2.08;;;;;15.30;100502.00;;;;10533486;27;20260;-84
2024/04/15 08:03:42;;;;;;;10.73;2.80;;;;;15.60;100506.00;;;;10501550;27;20749;-80
2024/04/15 08:08:43;;;;;;;9.82;3.33;;;;;16.20;100482.00;;;;10539593;27;20400;-80
2024/04/15 08:13:45;;;;;;;5.88;2.15;;;;;17.50;100478.00;;;;10501420;27;20839;-80
2024/04/15 08:18:49;;;;;;;6.75;2.08;;;;;17.30;100460.00;;;;10525950;27;20265;-79
2024/04/15 08:23:51;;;;;;;6.60;1.80;;;;;16.80;100449.00;;;;10520164;27;20377;-80
2024/04/15 08:28:53;;;;;;;12.45;2.30;;;;;15.50;100443.00;;;;10502905;27;20954;-81
2024/04/15 08:33:55;;;;;;;8.13;1.95;;;;;15.30;100424.00;;;;10495191;27;20270;-82
2024/04/15 08:38:56;;;;;;;9.82;2.03;;;;;14.80;100425.00;;;;10504747;27;20284;-80
2024/04/15 08:44:04;;;;;;;9.10;2.13;;;;;14.30;100418.00;;;;10532934;27;20303;-81
2024/04/15 08:49:07;;;;;;;10.63;2.30;;;;;14.30;100408.00;;;;10506728;27;20261;-81
2024/04/15 08:54:09;;;;;;;14.90;2.77;;;;;14.50;100391.00;;;;10527542;27;20775;-81
2024/04/15 08:59:15;;;;;;;8.47;2.00;;;;;14.60;100377.00;;;;10512738;27;20333;-80
2024/04/15 09:04:16;;;;;;;14.95;2.05;;;;;17.10;100349.00;;;;10505452;27;20266;-82
2024/04/15 09:09:18;;;;;;;9.60;2.05;;;;;17.90;100349.00;;;;10569636;27;20293;-82
2024/04/15 09:14:20;;;;;;;11.60;2.95;;;;;17.30;100347.00;;;;10529628;27;20312;-81
2024/04/15 09:19:22;;;;;;;10.90;2.35;;;;;17.00;100314.00;;;;10539109;27;20315;-82
2024/04/15 09:24:25;;;;;;;10.85;2.35;;;;;17.00;100305.00;;;;10548280;27;20291;-81
2024/04/15 09:29:26;;;;;;;5.90;2.25;;;;;18.00;100264.00;;;;10507630;27;20265;-81
2024/04/15 09:34:28;;;;;;;8.18;2.50;;;;;18.10;100262.00;;;;10534706;27;20269;-81
2024/04/15 09:39:32;;;;;;;12.27;3.00;;;;;18.60;100239.00;;;;10535310;27;20269;-83
2024/04/15 09:44:33;;;;;;;8.50;2.45;;;;;18.60;100230.00;;;;10530055;27;20733;-80
2024/04/15 09:49:36;;;;;;;12.95;2.08;;;;;18.30;100239.00;;;;10527446;27;22885;-81
2024/04/15 09:54:40;;;;;;;12.10;1.90;;;;;18.50;100209.00;;;;10504342;27;20257;-81
2024/04/15 09:59:45;;;;;;;10.02;1.83;;;;;18.00;100193.00;;;;10526537;27;20291;-83
2024/04/15 10:04:51;;;;;;;6.75;1.52;;;;;17.10;100188.00;;;;10492273;27;20975;-83
2024/04/15 10:09:54;;;;;;;15.57;2.55;;;;;16.50;100185.00;;;;10548891;27;20267;-83
2024/04/15 10:14:57;;;;;;;10.10;1.92;;;;;17.10;100174.00;;;;10529186;27;20269;-82
2024/04/15 10:20:08;;;;;;;5.57;1.90;;;;;16.20;100156.00;;;;10505220;27;20300;-82
2024/04/15 10:25:10;;;;;;;9.00;1.60;;;;;15.40;100145.00;;;;10503020;27;20269;-80
2024/04/15 10:30:17;;;;;;;7.50;1.85;;;;;15.20;100116.00;;;;10548692;27;20957;-81
2024/04/15 10:35:22;;;;;;;10.52;2.00;;;;;14.90;100110.00;;;;10529129;27;20281;-81
2024/04/15 10:40:43;;;;;;;5.78;1.83;;;;;14.30;100106.00;;;;10561212;27;20313;-80
2024/04/15 10:45:48;;;;;;;6.15;2.45;;;;;15.10;100076.00;;;;10506921;27;20943;-81
2024/04/15 10:50:49;;;;;;;5.87;2.10;;;;;14.70;100069.00;;;;10532132;27;20268;-79
2024/04/15 10:55:51;;;;;;;7.97;3.10;;;;;13.90;100057.00;;;;10531892;27;20299;-79
2024/04/15 11:00:52;;;;;;;9.83;2.73;;;;;14.60;100031.00;;;;10541043;27;20296;-79
2024/04/15 11:05:56;;;;;;;13.60;2.95;;;;;16.50;100014.00;;;;10564196;27;20272;-79
2024/04/15 11:10:57;;;;;;;6.47;2.50;;;;;17.80;99997.00;;;;10533881;27;20261;-78
2024/04/15 11:15:59;;;;;;;7.57;2.45;;;;;18.40;99961.00;;;;10529138;27;20320;-79
2024/04/15 11:21:02;;;;;;;7.20;3.03;;;;;19.50;99960.00;;;;10553462;27;21046;-80
2024/04/15 11:26:11;;;;;;;6.18;2.60;;;;;18.40;99935.00;;;;10488861;27;20801;-78
2024/04/15 11:31:13;;;;;;;6.28;2.20;;;;;18.20;99935.00;;;;10523381;27;20410;-86
2024/04/15 11:36:16;;;;;;;6.40;2.45;;;;;17.00;99918.00;;;;10511424;27;20643;-84
2024/04/15 11:41:18;;;;;;;4.95;1.77;;;;;15.50;99887.00;;;;10515784;27;20261;-85
2024/04/15 11:46:19;;;;;;;5.03;1.80;;;;;14.90;99866.00;;;;10521757;27;20297;-86
2024/04/15 11:51:21;;;;;;;4.70;2.08;;;;;16.60;99847.00;;;;10552198;27;20299;-84
2024/04/15 11:56:23;;;;;;;6.85;1.80;;;;;16.20;99850.00;;;;10537117;27;20266;-84
2024/04/15 12:01:26;;;;;;;8.45;1.50;;;;;15.20;99844.00;;;;10553058;27;20304;-85
2024/04/15 12:06:28;;;;;;;10.80;1.88;;;;;14.70;99828.00;;;;10537223;27;21811;-84
2024/04/15 12:11:29;;;;;;;9.40;1.50;;;;;15.80;99818.00;;;;10538137;27;20253;-85
2024/04/15 12:16:31;;;;;;;2.92;1.20;;;;;15.50;99813.00;;;;10572207;27;20316;-87
2024/04/15 12:21:32;;;;;;;6.47;0.98;;;;;15.90;99798.00;;;;10491116;27;20299;-84
2024/04/15 12:26:36;;;;;;;3.78;1.00;;;;;16.00;99772.00;;;;10560025;27;20257;-85
2024/04/15 12:31:38;;;;;;;3.08;0.98;;;;;16.00;99736.00;;;;10548430;27;20308;-84
2024/04/15 12:36:39;;;;;;;5.82;1.05;;;;;15.60;99728.00;;;;10533198;27;20949;-84
2024/04/15 12:41:43;;;;;;;3.53;0.93;;;;;14.40;99702.00;;;;10540220;27;20349;-81
2024/04/15 12:46:44;;;;;;;2.40;1.37;;;;;13.20;99699.00;;;;10567376;27;20265;-82
2024/04/15 12:51:46;;;;;;;3.77;1.40;;;;;12.20;99706.00;;;;10536341;27;20264;-80
2024/04/15 12:56:47;;;;;;;4.07;1.33;;;;;11.10;99869.00;;;;10543129;27;20280;-79
2024/04/15 13:01:49;;;;;;;2.47;0.70;;;;;8.70;99891.00;;;;10528889;27;20273;-79
2024/04/15 13:07:07;;;;;;;2.53;1.07;;;;;7.60;99889.00;;;;10535472;27;20368;-78
2024/04/15 13:12:10;;;;;;;5.73;1.13;;;;;7.20;99893.00;;;;10534576;27;20307;-79
2024/04/15 13:17:11;;;;;;;2.40;0.90;;;;;7.00;99910.00;;;;10565448;27;20330;-79
2024/04/15 13:22:13;;;;;;;2.30;0.73;;;;;7.00;99912.00;;;;10561744;27;20292;-79
2024/04/15 13:27:14;;;;;;;2.20;0.80;;;;;6.80;99907.00;;;;10570354;27;20315;-78
2024/04/15 13:32:17;;;;;;;3.13;0.90;;;;;6.90;99893.00;;;;10513067;27;20387;-79
2024/04/15 13:37:21;;;;;;;4.37;1.10;;;;;7.80;99862.00;;;;10523301;27;20303;-79
2024/04/15 13:42:22;;;;;;;3.10;1.10;;;;;7.80;99865.00;;;;10483111;27;20295;-79
2024/04/15 13:47:24;;;;;;;5.50;1.10;;;;;7.50;99891.00;;;;10576693;27;20866;-77
2024/04/15 13:52:25;;;;;;;5.90;0.97;;;;;7.80;99860.00;;;;10515237;27;21026;-83
2024/04/15 13:57:27;;;;;;;5.10;1.23;;;;;8.60;99873.00;;;;10555732;27;20273;-82
2024/04/15 14:02:29;;;;;;;5.07;0.97;;;;;8.60;99878.00;;;;10566487;27;20265;-85
2024/04/15 14:07:30;;;;;;;3.27;1.07;;;;;8.60;99879.00;;;;10497328;27;20317;-84
2024/04/15 14:12:32;;;;;;;4.57;1.13;;;;;8.10;99884.00;;;;10542485;27;20256;-86
2024/04/15 14:17:34;;;;;;;3.73;0.97;;;;;8.60;99889.00;;;;10534136;27;20261;-90
2024/04/15 14:22:36;;;;;;;2.57;0.93;;;;;8.40;99910.00;;;;10557382;27;20262;-85
2024/04/15 14:27:38;;;;;;;2.73;1.20;;;;;8.70;99910.00;;;;10534709;27;20360;-84
2024/04/15 14:32:39;;;;;;;6.33;1.50;;;;;8.60;99940.00;;;;10523826;27;21139;-82
2024/04/15 14:37:44;;;;;;;6.40;1.27;;;;;8.30;99927.00;;;;10556620;27;21132;-82
2024/04/15 14:42:45;;;;;;;0.70;0.70;;;;;8.60;99899.00;;;;10496535;27;20269;-81
2024/04/15 14:47:47;;;;;;;3.60;0.67;;;;;8.80;99947.00;;;;10494264;27;20278;-81
2024/04/15 14:52:49;;;;;;;3.73;0.70;;;;;8.70;99931.00;;;;10561639;27;20261;-82
2024/04/15 14:57:50;;;;;;;2.87;0.80;;;;;8.40;99941.00;;;;10498808;27;20693;-82
2024/04/15 15:02:52;;;;;;;2.33;0.60;;;;;7.70;99919.00;;;;10473222;28;20260;-80
2024/04/15 15:07:53;;;;;;;4.37;0.93;;;;;7.30;99954.00;;;;10524156;27;20265;-78
2024/04/15 15:12:56;;;;;;;2.97;1.00;;;;;7.00;99959.00;;;;10487904;27;20374;-79
2024/04/15 15:17:58;;;;;;;2.00;0.90;;;;;6.80;99971.00;;;;10482106;27;20261;-79
2024/04/15 15:22:59;;;;;;;4.07;0.73;;;;;6.60;99983.00;;;;10528741;27;21081;-78
2024/04/15 15:28:02;;;;;;;5.23;0.60;;;;;6.60;99935.00;;;;10525409;27;20264;-79
2024/04/15 15:33:04;;;;;;;2.43;0.57;;;;;7.30;99939.00;;;;10510545;27;20317;-79
2024/04/15 15:38:06;;;;;;;2.67;0.73;;;;;7.50;99921.00;;;;10564474;27;20284;-79
2024/04/15 15:43:08;;;;;;;3.30;1.17;;;;;8.00;99945.00;;;;10521680;27;20315;-79
2024/04/15 15:48:09;;;;;;;1.77;0.93;;;;;8.30;99946.00;;;;10537090;27;20312;-79
2024/04/15 15:53:12;;;;;;;6.60;1.23;;;;;8.50;99949.00;;;;10542281;27;21056;-78
2024/04/15 15:58:13;;;;;;;3.40;1.10;;;;;8.40;99962.00;;;;10533342;27;20556;-78
2024/04/15 16:03:20;;;;;;;2.83;0.90;;;;;8.20;99964.00;;;;10541646;27;20256;-79
2024/04/15 16:08:21;;;;;;;2.83;0.90;;;;;8.00;99972.00;;;;10518509;27;20288;-79
2024/04/15 16:13:23;;;;;;;3.07;1.30;;;;;8.00;99976.00;;;;10506779;27;20312;-81
2024/04/15 16:18:25;;;;;;;3.70;1.07;;;;;8.30;99981.00;;;;10472966;27;20771;-80
2024/04/15 16:23:27;;;;;;;5.97;1.50;;;;;8.40;100003.00;;;;10496891;27;20262;-80
2024/04/15 16:28:28;;;;;;;6.17;1.50;;;;;8.70;99998.00;;;;10565185;27;20385;-82
2024/04/15 16:33:30;;;;;;;3.33;1.10;;;;;8.80;99985.00;;;;10472616;27;20304;-80
2024/04/15 16:38:34;;;;;;;6.70;1.50;;;;;8.70;99994.00;;;;10534789;27;20265;-80
2024/04/15 16:43:35;;;;;;;2.80;1.20;;;;;8.90;99993.00;;;;10564251;27;20295;-81
2024/04/15 16:48:37;;;;;;;2.57;1.00;;;;;8.60;99988.00;;;;10557964;27;20270;-81
2024/04/15 16:53:38;;;;;;;2.53;1.00;;;;;8.40;99979.00;;;;10541601;27;20273;-81
2024/04/15 16:58:40;;;;;;;6.23;1.17;;;;;8.30;99983.00;;;;10531512;27;20593;-81
2024/04/15 17:03:42;;;;;;;4.77;1.00;;;;;8.30;99996.00;;;;10540428;27;20293;-80
2024/04/15 17:08:43;;;;;;;4.07;1.33;;;;;8.20;99996.00;;;;10533904;27;20280;-80
2024/04/15 17:13:45;;;;;;;6.23;1.17;;;;;8.20;99995.00;;;;10534048;27;20292;-82
2024/04/15 17:18:46;;;;;;;6.67;1.17;;;;;8.20;99989.00;;;;10530501;27;20266;-79
2024/04/15 17:23:48;;;;;;;6.03;1.20;;;;;8.10;99983.00;;;;10527420;27;20713;-79
2024/04/15 17:28:49;;;;;;;3.57;1.60;;;;;8.10;99965.00;;;;10502259;27;20273;-79
2024/04/15 17:33:51;;;;;;;6.80;1.57;;;;;8.10;99965.00;;;;10508978;27;20273;-79
2024/04/15 17:38:54;;;;;;;8.60;1.57;;;;;8.00;99956.00;;;;10554872;27;20287;-78
2024/04/15 17:43:55;;;;;;;8.50;1.27;;;;;8.00;99970.00;;;;10509314;27;20253;-79
2024/04/15 17:48:57;;;;;;;3.03;1.20;;;;;8.00;99968.00;;;;10516324;27;20341;-79
2024/04/15 17:53:59;;;;;;;5.20;1.30;;;;;8.00;99969.00;;;;10505109;27;20265;-78
2024/04/15 17:59:02;;;;;;;3.87;1.23;;;;;7.90;99967.00;;;;10552971;27;20308;-78
2024/04/15 18:04:05;;;;;;;5.10;1.20;;;;;7.80;99965.00;;;;10512936;27;20283;-79
2024/04/15 18:09:07;;;;;;;5.30;1.63;;;;;7.60;99958.00;;;;10473337;27;20262;-78
2024/04/15 18:14:09;;;;;;;10.47;2.20;;;;;7.50;99949.00;;;;10499207;27;20369;-79
2024/04/15 18:19:11;;;;;;;10.10;2.03;;;;;7.30;99949.00;;;;10531371;27;20443;-80
2024/04/15 18:24:12;;;;;;;3.60;1.40;;;;;7.20;99946.00;;;;10529800;27;20261;-79
2024/04/15 18:29:14;;;;;;;4.57;1.50;;;;;7.10;99962.00;;;;10556667;27;20296;-79
2024/04/15 18:34:16;;;;;;;2.53;1.70;;;;;7.10;99958.00;;;;10517606;27;20272;-81
2024/04/15 18:39:18;;;;;;;3.70;1.63;;;;;7.10;99953.00;;;;10523057;27;20296;-80
2024/04/15 18:44:19;;;;;;;6.33;1.80;;;;;7.10;99977.00;;;;10530493;27;20273;-79
2024/04/15 18:49:21;;;;;;;10.30;3.20;;;;;7.00;99968.00;;;;10566327;27;20385;-80
2024/04/15 18:54:22;;;;;;;6.67;1.80;;;;;7.00;99970.00;;;;10493161;27;20356;-81
2024/04/15 18:59:24;;;;;;;6.77;2.00;;;;;7.00;99990.00;;;;10517723;27;21240;-80
2024/04/15 19:04:26;;;;;;;6.37;1.70;;;;;7.10;100009.00;;;;10547590;27;20313;-81
2024/04/15 19:09:27;;;;;;;6.67;1.60;;;;;7.10;100017.00;;;;10498887;27;20910;-80
2024/04/15 19:14:29;;;;;;;8.73;2.33;;;;;7.10;100020.00;;;;10555713;27;20291;-81
2024/04/15 19:19:50;;;;;;;7.40;1.70;;;;;7.30;100029.00;;;;10552437;27;20280;-81
2024/04/15 19:24:52;;;;;;;6.30;1.67;;;;;7.50;100050.00;;;;10550413;27;20270;-81
2024/04/15 19:29:53;;;;;;;10.27;2.00;;;;;7.70;100060.00;;;;10527409;27;20256;-80
2024/04/15 19:34:55;;;;;;;1.77;1.13;;;;;7.70;100041.00;;;;10505095;27;20315;-80
2024/04/15 19:39:56;;;;;;;4.60;1.00;;;;;7.60;100045.00;;;;10482178;27;21076;-81
2024/04/15 19:44:58;;;;;;;2.27;0.83;;;;;7.50;100043.00;;;;10563240;27;20265;-78
2024/04/15 19:50:00;;;;;;;2.47;0.70;;;;;7.40;100034.00;;;;10519148;27;20266;-78
2024/04/15 19:55:03;;;;;;;2.50;0.80;;;;;7.20;100034.00;;;;10560279;27;20261;-77
2024/04/15 20:00:05;;;;;;;1.67;0.60;;;;;7.00;100044.00;;;;10505668;27;20264;-79
2024/04/15 20:05:07;;;;;;;1.37;0.40;;;;;7.00;100050.00;;;;10500961;27;20365;-82
2024/04/15 20:10:08;;;;;;;4.17;0.60;;;;;7.00;100036.00;;;;10528783;27;20288;-79
2024/04/15 20:15:11;;;;;;;1.77;0.80;;;;;7.00;100046.00;;;;10497097;27;20313;-79
2024/04/15 20:20:16;;;;;;;5.57;1.17;;;;;7.10;100069.00;;;;10554763;27;20959;-79
2024/04/15 20:25:17;;;;;;;2.60;1.00;;;;;7.10;100073.00;;;;10530777;27;20273;-79
2024/04/15 20:30:19;;;;;;;3.13;0.90;;;;;7.20;100063.00;;;;10523721;27;20261;-81
2024/04/15 20:35:20;;;;;;;4.87;1.00;;;;;7.10;100066.00;;;;10504444;27;20887;-78
2024/04/15 20:40:22;;;;;;;3.07;0.90;;;;;7.00;100068.00;;;;10559188;27;20279;-79
2024/04/15 20:45:40;;;;;;;5.07;1.33;;;;;6.90;100062.00;;;;10549165;27;20686;-79
2024/04/15 20:50:41;;;;;;;0.90;0.67;;;;;6.80;100084.00;;;;10525214;27;20290;-79
2024/04/15 20:55:43;;;;;;;2.43;0.77;;;;;6.80;100092.00;;;;10556165;27;20265;-85
2024/04/15 21:00:44;;;;;;;4.10;1.33;;;;;6.70;100084.00;;;;10551353;27;20270;-86
2024/04/15 21:05:46;;;;;;;2.67;1.00;;;;;6.70;100100.00;;;;10526827;27;20266;-86
2024/04/15 21:10:48;;;;;;;2.80;0.80;;;;;6.60;100090.00;;;;10555225;27;20623;-86
2024/04/15 21:15:49;;;;;;;3.33;0.80;;;;;6.50;100091.00;;;;10578466;27;20280;-85
2024/04/15 21:20:51;;;;;;;2.53;0.90;;;;;6.50;100083.00;;;;10529582;27;20257;-86
2024/04/15 21:25:52;;;;;;;1.13;0.87;;;;;6.40;100100.00;;;;10554781;27;20288;-86
2024/04/15 21:30:54;;;;;;;3.43;1.00;;;;;6.20;100097.00;;;;10559183;27;20312;-84
2024/04/15 21:35:55;;;;;;;2.40;1.40;;;;;6.10;100083.00;;;;10556234;27;20264;-86
2024/04/15 21:40:57;;;;;;;5.47;1.20;;;;;6.10;100079.00;;;;10554257;27;20354;-86
2024/04/15 21:45:58;;;;;;;2.23;1.30;;;;;6.00;100075.00;;;;10553334;27;20269;-84
2024/04/15 21:51:01;;;;;;;2.73;1.00;;;;;5.90;100066.00;;;;10571597;27;20260;-85
2024/04/15 21:56:02;;;;;;;2.77;1.10;;;;;5.90;100062.00;;;;10572703;27;20249;-86
2024/04/15 22:01:04;;;;;;;4.07;1.40;;;;;5.80;100060.00;;;;10532813;27;20265;-86
2024/04/15 22:06:06;;;;;;;5.73;1.73;;;;;5.70;100049.00;;;;10654877;22;20313;-84
2024/04/15 22:11:07;;;;;;;8.57;1.90;;;;;5.70;100043.00;;;;11206367;22;20253;-81
2024/04/15 22:16:09;;;;;;;8.87;1.33;;;;;5.70;100054.00;;;;10536066;27;20265;-82
2024/04/15 22:21:11;;;;;;;5.73;1.47;;;;;5.60;100046.00;;;;10557965;27;20972;-82
2024/04/15 22:26:12;;;;;;;6.97;1.67;;;;;5.60;100060.00;;;;10505931;27;20273;-81
2024/04/15 22:31:14;;;;;;;3.00;1.20;;;;;5.70;100089.00;;;;10492048;27;20292;-81
2024/04/15 22:36:15;;;;;;;3.00;0.93;;;;;5.90;100122.00;;;;10474430;27;20364;-80
2024/04/15 22:41:17;;;;;;;5.87;1.40;;;;;5.60;100089.00;;;;10537849;27;20316;-81
2024/04/15 22:46:18;;;;;;;3.97;0.87;;;;;5.20;100078.00;;;;10542617;27;20687;-81
2024/04/15 22:51:20;;;;;;;2.90;0.80;;;;;5.00;100076.00;;;;10555488;27;20292;-81
2024/04/15 22:56:21;;;;;;;4.00;1.07;;;;;4.80;100062.00;;;;10548834;27;20834;-81
2024/04/15 23:01:24;;;;;;;6.20;1.77;;;;;4.80;100047.00;;;;10515992;27;20320;-80
2024/04/15 23:06:25;;;;;;;4.97;1.27;;;;;4.90;100047.00;;;;10491538;27;21205;-79
2024/04/15 23:11:27;;;;;;;3.27;1.37;;;;;5.00;100060.00;;;;10521927;27;20767;-79
2024/04/15 23:16:31;;;;;;;4.23;1.50;;;;;5.10;100050.00;;;;10501444;27;20308;-80
2024/04/15 23:21:32;;;;;;;6.83;1.63;;;;;5.10;100054.00;;;;10513804;27;20266;-78
2024/04/15 23:26:34;;;;;;;7.10;1.70;;;;;5.10;100041.00;;;;10544441;27;20301;-78
2024/04/15 23:31:35;;;;;;;5.33;1.60;;;;;5.10;100036.00;;;;10492612;27;20260;-79
2024/04/15 23:36:43;;;;;;;5.20;1.40;;;;;5.20;100024.00;;;;10537288;27;20311;-80
2024/04/15 23:41:45;;;;;;;6.87;1.53;;;;;5.30;100024.00;;;;10529295;27;20382;-79
2024/04/15 23:46:46;;;;;;;7.10;1.60;;;;;5.30;100020.00;;;;10548455;27;20904;-79
2024/04/15 23:52:06;;;;;;;4.50;1.70;;;;;5.40;100019.00;;;;10553840;27;20347;-80
2024/04/15 23:57:26;;;;;;;2.90;1.23;;;;;5.50;100010.00;;;;10535422;27;20269;-78
